Check out our new BloomSky Weather System.

Active alerts


No alerts


Thunder radar  blitzortung!


Rain radar more information rain snow radar


Visit our other weather sites:

Template documentation
and downloads

And another site



Weather Underground History page Text

Daily Summary for April 4, 2017 Units:  Metric    English   Both
« Previous Day
Next Day »
Daily Weekly Monthly Yearly Custom
  High: Low: Average:
Temperature: 31.2 °C 15.3 °C 23.8 °C
Dew Point: 21.5 °C 11.7 °C 16.4 °C
Humidity: 99 % 31 % 69 %
Wind Speed: 24.1 km/h 0 km/h 6 km/h
Wind Gust: 32.2 km/h - -
Wind:- - SSE
Pressure: 1007.3 hPa 1003.3 hPa -
Precipitation: 0 mm    
Historical Graphs
 
 
Tabular Data for April 4, 2017
Time Temperature Dew Point Pressure Wind Wind Speed Wind Gust Humidity Rainfall Rate (Hourly)
00:05 18.5 °C 15.7 °C 1007 hPa Calm     84 % 0 mm
00:10 18.5 °C 15.9 °C 1007 hPa SSE 1.6 km/h   85 % 0 mm
00:14 18.6 °C 16.2 °C 1007 hPa Calm   1.6 km/h 86 % 0 mm
00:19 18.7 °C 16.3 °C 1007 hPa South 1.6 km/h 1.6 km/h 86 % 0 mm
00:25 19.1 °C 16.9 °C 1007 hPa SSW 4.8 km/h 4.8 km/h 87 % 0 mm
00:30 19.6 °C 17 °C 1007 hPa SSW 4.8 km/h 8 km/h 85 % 0 mm
00:35 19.8 °C 17 °C 1007 hPa SSW 3.2 km/h 8 km/h 84 % 0 mm
00:40 19.9 °C 16.9 °C 1006.7 hPa South 3.2 km/h 8 km/h 83 % 0 mm
00:45 20 °C 16.8 °C 1006.7 hPa SSE 3.2 km/h 8 km/h 82 % 0 mm
00:50 20.1 °C 16.9 °C 1007 hPa SSE 6.4 km/h 6.4 km/h 82 % 0 mm
00:53 20 °C 16.8 °C 1007 hPa ESE 4.8 km/h 6.4 km/h 82 % 0 mm
00:58 20.1 °C 17.1 °C 1007 hPa SSW 1.6 km/h 6.4 km/h 83 % 0 mm
01:03 20.1 °C 17.1 °C 1007 hPa South 3.2 km/h 6.4 km/h 83 % 0 mm
01:08 20 °C 17 °C 1006.7 hPa SSE 1.6 km/h 6.4 km/h 83 % 0 mm
01:13 19.9 °C 16.9 °C 1007 hPa South 1.6 km/h 6.4 km/h 83 % 0 mm
01:14 19.9 °C 16.9 °C 1006.7 hPa South 4.8 km/h 6.4 km/h 83 % 0 mm
01:19 19.8 °C 17 °C 1007 hPa SSW 3.2 km/h 4.8 km/h 84 % 0 mm
01:24 19.7 °C 16.9 °C 1007 hPa SSE 1.6 km/h 4.8 km/h 84 % 0 mm
01:29 19.6 °C 16.8 °C 1007 hPa Calm   4.8 km/h 84 % 0 mm
01:34 19.5 °C 16.9 °C 1007 hPa South 1.6 km/h 4.8 km/h 85 % 0 mm
01:39 19.4 °C 16.8 °C 1007 hPa Calm   4.8 km/h 85 % 0 mm
01:44 19.2 °C 16.6 °C 1007 hPa South 1.6 km/h 3.2 km/h 85 % 0 mm
01:49 19.1 °C 16.7 °C 1006.7 hPa Calm   3.2 km/h 86 % 0 mm
01:54 19.1 °C 16.7 °C 1006.7 hPa Calm   3.2 km/h 86 % 0 mm
01:59 19 °C 16.6 °C 1006.7 hPa Calm   3.2 km/h 86 % 0 mm
02:04 18.8 °C 16.4 °C 1006.7 hPa Calm   3.2 km/h 86 % 0 mm
02:09 18.6 °C 16.4 °C 1006.7 hPa Calm   3.2 km/h 87 % 0 mm
02:14 18.4 °C 16.4 °C 1006.7 hPa Calm     88 % 0 mm
02:19 18.2 °C 16.2 °C 1006.7 hPa Calm     88 % 0 mm
02:24 18 °C 16.2 °C 1006.3 hPa Calm     89 % 0 mm
02:29 17.8 °C 16 °C 1006.3 hPa Calm     89 % 0 mm
02:34 17.6 °C 15.8 °C 1006.3 hPa Calm     89 % 0 mm
02:39 17.5 °C 15.8 °C 1006.3 hPa Calm     90 % 0 mm
02:44 17.4 °C 15.9 °C 1006.3 hPa Calm     91 % 0 mm
02:49 17.2 °C 15.7 °C 1006.3 hPa Calm     91 % 0 mm
02:55 17.1 °C 15.6 °C 1006.3 hPa Calm     91 % 0 mm
03:00 17 °C 15.5 °C 1006 hPa Calm     91 % 0 mm
03:04 16.9 °C 15.6 °C 1006 hPa Calm     92 % 0 mm
03:10 16.9 °C 15.6 °C 1006 hPa Calm     92 % 0 mm
03:15 16.9 °C 15.8 °C 1005.6 hPa Calm     93 % 0 mm
03:19 16.8 °C 15.7 °C 1006 hPa Calm     93 % 0 mm
03:25 16.7 °C 15.4 °C 1006 hPa Calm     92 % 0 mm
03:30 16.6 °C 15.5 °C 1006 hPa Calm     93 % 0 mm
03:35 16.4 °C 15.3 °C 1006 hPa Calm     93 % 0 mm
03:40 16.3 °C 15.2 °C 1006 hPa Calm     93 % 0 mm
03:45 16.2 °C 15.1 °C 1006 hPa Calm     93 % 0 mm
03:50 16.2 °C 15.2 °C 1006 hPa Calm     94 % 0 mm
03:55 15.9 °C 14.8 °C 1006.3 hPa Calm     93 % 0 mm
04:00 15.8 °C 14.8 °C 1006.3 hPa Calm     94 % 0 mm
04:05 15.8 °C 14.8 °C 1006.3 hPa Calm     94 % 0 mm
04:10 15.7 °C 14.7 °C 1006.3 hPa Calm     94 % 0 mm
04:15 15.6 °C 14.8 °C 1006.3 hPa Calm     95 % 0 mm
04:20 15.6 °C 14.8 °C 1006.3 hPa Calm     95 % 0 mm
04:25 15.5 °C 14.7 °C 1006.3 hPa Calm     95 % 0 mm
04:30 15.6 °C 14.8 °C 1006 hPa Calm     95 % 0 mm
04:35 15.7 °C 14.9 °C 1006 hPa Calm     95 % 0 mm
04:40 15.6 °C 14.8 °C 1006 hPa Calm     95 % 0 mm
04:45 15.7 °C 15.1 °C 1006 hPa Calm     96 % 0 mm
04:50 15.6 °C 14.8 °C 1006 hPa Calm     95 % 0 mm
04:55 15.5 °C 14.9 °C 1006 hPa Calm     96 % 0 mm
05:00 15.4 °C 14.8 °C 1006 hPa Calm     96 % 0 mm
05:05 15.4 °C 14.8 °C 1006 hPa Calm     96 % 0 mm
05:10 15.3 °C 14.7 °C 1006 hPa Calm     96 % 0 mm
05:15 15.4 °C 14.9 °C 1006 hPa Calm     97 % 0 mm
05:20 15.4 °C 14.8 °C 1006 hPa Calm     96 % 0 mm
05:25 15.3 °C 14.7 °C 1006.3 hPa Calm     96 % 0 mm
05:30 15.3 °C 14.8 °C 1006.3 hPa Calm     97 % 0 mm
05:35 15.4 °C 14.9 °C 1006.3 hPa Calm     97 % 0 mm
05:36 15.4 °C 14.9 °C 1006.3 hPa Calm     97 % 0 mm
05:41 15.5 °C 15 °C 1006.3 hPa Calm     97 % 0 mm
05:46 15.7 °C 15.2 °C 1006.3 hPa Calm     97 % 0 mm
05:51 15.8 °C 15.3 °C 1006.3 hPa Calm     97 % 0 mm
05:56 15.8 °C 15.3 °C 1006.3 hPa Calm     97 % 0 mm
06:01 15.8 °C 15.3 °C 1006 hPa Calm     97 % 0 mm
06:06 15.8 °C 15.3 °C 1006 hPa Calm     97 % 0 mm
06:11 15.7 °C 15.2 °C 1006 hPa Calm     97 % 0 mm
06:16 15.8 °C 15.3 °C 1006.3 hPa Calm     97 % 0 mm
06:21 15.8 °C 15.3 °C 1006.3 hPa Calm     97 % 0 mm
06:26 16 °C 15.5 °C 1006.3 hPa Calm     97 % 0 mm
06:31 16.1 °C 15.6 °C 1006.7 hPa Calm     97 % 0 mm
06:36 16.2 °C 15.9 °C 1006.7 hPa Calm     98 % 0 mm
06:41 16.2 °C 15.9 °C 1006.7 hPa Calm   1.6 km/h 98 % 0 mm
06:46 16.2 °C 15.7 °C 1006.7 hPa Calm   1.6 km/h 97 % 0 mm
06:51 16.2 °C 15.9 °C 1006.7 hPa Calm   1.6 km/h 98 % 0 mm
06:56 16.3 °C 16 °C 1006.7 hPa Calm   1.6 km/h 98 % 0 mm
07:01 16.4 °C 16.1 °C 1006.7 hPa Calm   1.6 km/h 98 % 0 mm
07:06 16.4 °C 16.1 °C 1006.7 hPa Calm   1.6 km/h 98 % 0 mm
07:11 16.4 °C 16.1 °C 1006.7 hPa Calm   1.6 km/h 98 % 0 mm
07:16 16.6 °C 16.3 °C 1006.7 hPa Calm   3.2 km/h 98 % 0 mm
07:21 16.7 °C 16.4 °C 1006.7 hPa Calm   3.2 km/h 98 % 0 mm
07:26 16.8 °C 16.5 °C 1006.7 hPa Calm   3.2 km/h 98 % 0 mm
07:31 16.8 °C 16.5 °C 1007 hPa Calm   1.6 km/h 98 % 0 mm
07:36 16.8 °C 16.5 °C 1006.7 hPa Calm   1.6 km/h 98 % 0 mm
07:41 17.1 °C 16.8 °C 1006.7 hPa Calm   1.6 km/h 98 % 0 mm
07:46 17.2 °C 16.9 °C 1006.7 hPa Calm   3.2 km/h 98 % 0 mm
07:51 17.4 °C 17.1 °C 1006.7 hPa Calm   3.2 km/h 98 % 0 mm
07:56 17.7 °C 17.4 °C 1006.7 hPa Calm   3.2 km/h 98 % 0 mm
08:01 18.1 °C 17.9 °C 1006.7 hPa SE 1.6 km/h 3.2 km/h 99 % 0 mm
08:06 18.4 °C 18.1 °C 1007 hPa ESE 1.6 km/h 4.8 km/h 98 % 0 mm
08:11 18.7 °C 18.4 °C 1007 hPa SE 1.6 km/h 4.8 km/h 98 % 0 mm
08:16 19.1 °C 18.8 °C 1007 hPa SSE 1.6 km/h 6.4 km/h 98 % 0 mm
08:21 19.5 °C 19.2 °C 1007 hPa SSW 1.6 km/h 6.4 km/h 98 % 0 mm
08:26 19.7 °C 19.2 °C 1007 hPa South 4.8 km/h 8 km/h 97 % 0 mm
08:31 19.9 °C 19.4 °C 1007.3 hPa SE 3.2 km/h 8 km/h 97 % 0 mm
08:36 20.3 °C 19.6 °C 1007.3 hPa SE 1.6 km/h 9.7 km/h 96 % 0 mm
08:41 20.6 °C 19.8 °C 1007.3 hPa SE 4.8 km/h 9.7 km/h 95 % 0 mm
08:46 20.8 °C 19.8 °C 1007.3 hPa SSE 1.6 km/h 9.7 km/h 94 % 0 mm
08:51 21.2 °C 20 °C 1007.3 hPa South 3.2 km/h 9.7 km/h 93 % 0 mm
08:56 21.7 °C 20.3 °C 1007.3 hPa SW 3.2 km/h 9.7 km/h 92 % 0 mm
09:01 22.1 °C 20.2 °C 1007.3 hPa SSE 4.8 km/h 4.8 km/h 89 % 0 mm
09:06 22.3 °C 20.2 °C 1007.3 hPa SSW 6.4 km/h 9.7 km/h 88 % 0 mm
09:11 22.4 °C 19.8 °C 1007.3 hPa South 4.8 km/h 9.7 km/h 85 % 0 mm
09:16 22.6 °C 19.8 °C 1007.3 hPa SSW 6.4 km/h 11.3 km/h 84 % 0 mm
09:21 22.7 °C 19.9 °C 1007.3 hPa SSE 6.4 km/h 11.3 km/h 84 % 0 mm
09:27 23 °C 20 °C 1007.3 hPa SW 3.2 km/h 11.3 km/h 83 % 0 mm
09:31 23.4 °C 20.1 °C 1007 hPa SSW 4.8 km/h 11.3 km/h 82 % 0 mm
09:34 23.5 °C 20 °C 1007 hPa SE 6.4 km/h 11.3 km/h 81 % 0 mm
09:39 23.6 °C 19.7 °C 1007.3 hPa SSE 3.2 km/h 11.3 km/h 79 % 0 mm
09:44 23.9 °C 19.8 °C 1007.3 hPa SSE 1.6 km/h 9.7 km/h 78 % 0 mm
09:49 24.2 °C 19.7 °C 1007.3 hPa SSW 3.2 km/h 9.7 km/h 76 % 0 mm
09:54 24.4 °C 19.2 °C 1007.3 hPa SE 9.7 km/h 9.7 km/h 73 % 0 mm
09:59 24.6 °C 19.2 °C 1007 hPa ESE 8 km/h 16.1 km/h 72 % 0 mm
10:04 24.8 °C 18.5 °C 1007 hPa SSW 8 km/h 16.1 km/h 68 % 0 mm
10:09 24.9 °C 18.8 °C 1007 hPa SE 14.5 km/h 17.7 km/h 69 % 0 mm
10:14 25.1 °C 18.1 °C 1007 hPa SE 6.4 km/h 17.7 km/h 65 % 0 mm
10:19 25.3 °C 18.7 °C 1007 hPa South 3.2 km/h 17.7 km/h 67 % 0 mm
10:24 25.6 °C 18.3 °C 1007 hPa SW 4.8 km/h 14.5 km/h 64 % 0 mm
10:29 25.9 °C 17.8 °C 1007 hPa South 8 km/h 14.5 km/h 61 % 0 mm
10:34 25.9 °C 17.8 °C 1007 hPa SW 9.7 km/h 17.7 km/h 61 % 0 mm
10:39 26.2 °C 17.6 °C 1007 hPa South 6.4 km/h 17.7 km/h 59 % 0 mm
10:44 26.4 °C 17.5 °C 1007 hPa SE 6.4 km/h 17.7 km/h 58 % 0 mm
10:49 26.5 °C 16.4 °C 1007.3 hPa SSW 8 km/h 17.7 km/h 54 % 0 mm
10:54 26.7 °C 16.9 °C 1007.3 hPa SSE 8 km/h 17.7 km/h 55 % 0 mm
10:59 26.8 °C 16.1 °C 1007.3 hPa SE 11.3 km/h 17.7 km/h 52 % 0 mm
11:04 27 °C 16.9 °C 1007.3 hPa South 12.9 km/h 17.7 km/h 54 % 0 mm
11:09 27.1 °C 16.4 °C 1007.3 hPa SSW 11.3 km/h 17.7 km/h 52 % 0 mm
11:14 27.3 °C 16.6 °C 1007.3 hPa ESE 6.4 km/h 17.7 km/h 52 % 0 mm
11:19 27.4 °C 16.4 °C 1007.3 hPa SSE 9.7 km/h 16.1 km/h 51 % 0 mm
11:24 27.5 °C 16.8 °C 1007.3 hPa South 6.4 km/h 19.3 km/h 52 % 0 mm
11:29 27.8 °C 16.1 °C 1007.3 hPa SE 12.9 km/h 19.3 km/h 49 % 0 mm
11:34 27.9 °C 16.2 °C 1007 hPa SE 9.7 km/h 19.3 km/h 49 % 0 mm
11:39 27.8 °C 15.8 °C 1007 hPa SSE 6.4 km/h 16.1 km/h 48 % 0 mm
11:44 27.9 °C 15.9 °C 1007 hPa SE 9.7 km/h 17.7 km/h 48 % 0 mm
11:49 28 °C 16.9 °C 1007 hPa South 9.7 km/h 17.7 km/h 51 % 0 mm
11:54 28.1 °C 16.4 °C 1007 hPa ESE 11.3 km/h 20.9 km/h 49 % 0 mm
11:59 28.2 °C 16.8 °C 1006.7 hPa NE 9.7 km/h 20.9 km/h 50 % 0 mm
12:04 28.3 °C 16.2 °C 1006.7 hPa South 6.4 km/h 20.9 km/h 48 % 0 mm
12:09 28.5 °C 16.4 °C 1006.7 hPa SSE 17.7 km/h 20.9 km/h 48 % 0 mm
12:14 28.6 °C 16.5 °C 1006.7 hPa SSE 12.9 km/h 20.9 km/h 48 % 0 mm
12:19 28.7 °C 16.9 °C 1006.7 hPa SE 6.4 km/h 20.9 km/h 49 % 0 mm
12:24 28.8 °C 16.4 °C 1006.7 hPa ESE 6.4 km/h 20.9 km/h 47 % 0 mm
12:29 28.9 °C 17.1 °C 1006.7 hPa SSE 6.4 km/h 20.9 km/h 49 % 0 mm
12:34 29.1 °C 17 °C 1006.3 hPa SSE 8 km/h 20.9 km/h 48 % 0 mm
12:39 29.2 °C 16.7 °C 1006.3 hPa ESE 14.5 km/h 20.9 km/h 47 % 0 mm
12:44 29.2 °C 17.7 °C 1006.3 hPa SSE 17.7 km/h 20.9 km/h 50 % 0 mm
12:49 29.4 °C 15.9 °C 1006 hPa SE 11.3 km/h 20.9 km/h 44 % 0 mm
12:50 29.4 °C 15.9 °C 1006 hPa South 9.7 km/h 20.9 km/h 44 % 0 mm
12:55 29.6 °C 15.7 °C 1006 hPa SSE 12.9 km/h 20.9 km/h 43 % 0 mm
13:00 29.8 °C 15.9 °C 1006 hPa SE 6.4 km/h 22.5 km/h 43 % 0 mm
13:01 29.9 °C 15.2 °C 1006 hPa SE 9.7 km/h 22.5 km/h 41 % 0 mm
13:06 30.1 °C 16.5 °C 1006 hPa South 11.3 km/h 22.5 km/h 44 % 0 mm
13:11 30.3 °C 15.2 °C 1005.6 hPa South 12.9 km/h 22.5 km/h 40 % 0 mm
13:16 30.4 °C 14.9 °C 1005.6 hPa SSE 4.8 km/h 22.5 km/h 39 % 0 mm
13:21 30.6 °C 15.1 °C 1005.6 hPa SSE 8 km/h 22.5 km/h 39 % 0 mm
13:26 30.6 °C 13.8 °C 1005.6 hPa South 9.7 km/h 24.1 km/h 36 % 0 mm
13:31 30.6 °C 13.8 °C 1005.3 hPa East 16.1 km/h 24.1 km/h 36 % 0 mm
13:36 30.6 °C 13.4 °C 1005.3 hPa East 19.3 km/h 27.4 km/h 35 % 0 mm
13:41 30.7 °C 13.9 °C 1005.3 hPa SSE 16.1 km/h 27.4 km/h 36 % 0 mm
13:46 30.7 °C 13.9 °C 1005.3 hPa ESE 12.9 km/h 29 km/h 36 % 0 mm
13:51 30.8 °C 12.7 °C 1005.3 hPa ESE 19.3 km/h 29 km/h 33 % 0 mm
13:56 30.8 °C 14 °C 1005.3 hPa SE 12.9 km/h 29 km/h 36 % 0 mm
14:01 30.8 °C 13.6 °C 1005.3 hPa SSW 8 km/h 29 km/h 35 % 0 mm
14:06 30.9 °C 13.7 °C 1005.3 hPa SSE 19.3 km/h 25.7 km/h 35 % 0 mm
14:11 31 °C 12.8 °C 1005.3 hPa SE 14.5 km/h 24.1 km/h 33 % 0 mm
14:16 31 °C 13.3 °C 1005.3 hPa ESE 12.9 km/h 24.1 km/h 34 % 0 mm
14:21 31.1 °C 12.9 °C 1005 hPa SSE 14.5 km/h 24.1 km/h 33 % 0 mm
14:26 31.2 °C 12.1 °C 1005 hPa SE 9.7 km/h 24.1 km/h 31 % 0 mm
14:31 31.1 °C 12 °C 1005 hPa South 19.3 km/h 29 km/h 31 % 0 mm
14:36 30.9 °C 13.2 °C 1005 hPa South 6.4 km/h 29 km/h 34 % 0 mm
14:41 30.8 °C 11.7 °C 1004.6 hPa SE 14.5 km/h 32.2 km/h 31 % 0 mm
14:46 30.8 °C 12.7 °C 1005 hPa ESE 24.1 km/h 32.2 km/h 33 % 0 mm
14:51 30.7 °C 12.1 °C 1004.6 hPa East 20.9 km/h 32.2 km/h 32 % 0 mm
14:56 30.7 °C 12.6 °C 1004.6 hPa SE 19.3 km/h 32.2 km/h 33 % 0 mm
15:01 30.8 °C 13.6 °C 1004.6 hPa SSW 9.7 km/h 32.2 km/h 35 % 0 mm
15:06 30.7 °C 13.9 °C 1004.6 hPa South 16.1 km/h 32.2 km/h 36 % 0 mm
15:11 30.8 °C 14 °C 1004.3 hPa SSE 8 km/h 25.7 km/h 36 % 0 mm
15:16 30.6 °C 14.2 °C 1004.3 hPa SE 17.7 km/h 24.1 km/h 37 % 0 mm
15:21 30.7 °C 13.5 °C 1004.3 hPa SSE 8 km/h 24.1 km/h 35 % 0 mm
15:26 30.8 °C 14.4 °C 1004.3 hPa East 19.3 km/h 25.7 km/h 37 % 0 mm
15:31 30.7 °C 15.2 °C 1004.3 hPa ENE 14.5 km/h 27.4 km/h 39 % 0 mm
15:36 30.7 °C 14.8 °C 1004.3 hPa South 9.7 km/h 27.4 km/h 38 % 0 mm
15:41 30.6 °C 15.5 °C 1004.3 hPa SSE 6.4 km/h 27.4 km/h 40 % 0 mm
15:46 30.6 °C 15.8 °C 1003.9 hPa ESE 11.3 km/h 22.5 km/h 41 % 0 mm
15:51 30.6 °C 15.5 °C 1003.9 hPa ESE 9.7 km/h 22.5 km/h 40 % 0 mm
15:56 30.6 °C 15.8 °C 1003.9 hPa SSE 11.3 km/h 19.3 km/h 41 % 0 mm
16:01 30.7 °C 15.9 °C 1003.9 hPa SSE 4.8 km/h 19.3 km/h 41 % 0 mm
16:06 30.8 °C 15.2 °C 1003.9 hPa SSE 12.9 km/h 19.3 km/h 39 % 0 mm
16:11 30.7 °C 14.8 °C 1003.6 hPa SSE 14.5 km/h 20.9 km/h 38 % 0 mm
16:16 30.6 °C 14.2 °C 1003.6 hPa SE 12.9 km/h 22.5 km/h 37 % 0 mm
16:21 30.6 °C 13.8 °C 1003.6 hPa East 12.9 km/h 22.5 km/h 36 % 0 mm
16:27 30.6 °C 14.7 °C 1003.6 hPa SE 11.3 km/h 22.5 km/h 38 % 0 mm
16:28 30.6 °C 14.7 °C 1003.6 hPa SE 8 km/h 22.5 km/h 38 % 0 mm
16:33 30.6 °C 14.2 °C 1003.6 hPa SSE 4.8 km/h 22.5 km/h 37 % 0 mm
16:38 30.5 °C 13.7 °C 1003.6 hPa SE 14.5 km/h 24.1 km/h 36 % 0 mm
16:43 30.6 °C 14.2 °C 1003.3 hPa SE 11.3 km/h 24.1 km/h 37 % 0 mm
16:48 30.6 °C 13.8 °C 1003.6 hPa SE 9.7 km/h 24.1 km/h 36 % 0 mm
16:53 30.6 °C 13.4 °C 1003.3 hPa SE 8 km/h 22.5 km/h 35 % 0 mm
16:58 30.6 °C 13.8 °C 1003.3 hPa SE 12.9 km/h 20.9 km/h 36 % 0 mm
17:03 30.6 °C 12.9 °C 1003.3 hPa SW 8 km/h 17.7 km/h 34 % 0 mm
17:04 30.6 °C 12.5 °C 1003.3 hPa East 3.2 km/h 17.7 km/h 33 % 0 mm
17:09 30.7 °C 13.5 °C 1003.3 hPa SSE 3.2 km/h 17.7 km/h 35 % 0 mm
17:14 30.8 °C 13.6 °C 1003.3 hPa SSE 6.4 km/h 17.7 km/h 35 % 0 mm
17:19 30.8 °C 13.1 °C 1003.3 hPa ESE 8 km/h 17.7 km/h 34 % 0 mm
17:24 30.8 °C 13.1 °C 1003.3 hPa SSE 12.9 km/h 20.9 km/h 34 % 0 mm
17:29 30.7 °C 13 °C 1003.3 hPa ESE 8 km/h 20.9 km/h 34 % 0 mm
17:34 30.6 °C 12.9 °C 1003.3 hPa South 8 km/h 20.9 km/h 34 % 0 mm
17:39 30.7 °C 13.5 °C 1003.3 hPa SE 12.9 km/h 17.7 km/h 35 % 0 mm
17:44 30.7 °C 13.5 °C 1003.3 hPa SE 6.4 km/h 19.3 km/h 35 % 0 mm
17:50 30.6 °C 13.8 °C 1003.3 hPa SSE 14.5 km/h 19.3 km/h 36 % 0 mm
17:55 30.5 °C 14.2 °C 1003.3 hPa East 14.5 km/h 19.3 km/h 37 % 0 mm
18:00 30.4 °C 14.1 °C 1003.3 hPa SSE 4.8 km/h 20.9 km/h 37 % 0 mm
18:05 30.3 °C 13.6 °C 1003.3 hPa ESE 8 km/h 22.5 km/h 36 % 0 mm
18:10 30.2 °C 13.9 °C 1003.3 hPa ESE 11.3 km/h 22.5 km/h 37 % 0 mm
18:15 30.1 °C 14.2 °C 1003.3 hPa ESE 6.4 km/h 22.5 km/h 38 % 0 mm
18:20 30.1 °C 14.2 °C 1003.3 hPa SE 14.5 km/h 19.3 km/h 38 % 0 mm
18:25 29.9 °C 13.6 °C 1003.6 hPa SSE 16.1 km/h 20.9 km/h 37 % 0 mm
18:30 29.8 °C 14 °C 1003.6 hPa ESE 9.7 km/h 20.9 km/h 38 % 0 mm
18:35 29.7 °C 13.9 °C 1003.6 hPa SSE 8 km/h 20.9 km/h 38 % 0 mm
18:40 29.5 °C 14.1 °C 1003.6 hPa SSE 8 km/h 22.5 km/h 39 % 0 mm
18:45 29.4 °C 14.4 °C 1003.6 hPa South 8 km/h 22.5 km/h 40 % 0 mm
18:50 29.3 °C 14.3 °C 1003.6 hPa SSE 4.8 km/h 22.5 km/h 40 % 0 mm
18:55 29.2 °C 14.2 °C 1003.6 hPa SE 4.8 km/h 16.1 km/h 40 % 0 mm
19:00 29.1 °C 14.1 °C 1003.9 hPa SE 4.8 km/h 16.1 km/h 40 % 0 mm
19:05 28.9 °C 14.3 °C 1003.9 hPa South 9.7 km/h 17.7 km/h 41 % 0 mm
19:10 28.7 °C 14.9 °C 1003.9 hPa SE 4.8 km/h 17.7 km/h 43 % 0 mm
19:15 28.6 °C 14.4 °C 1003.9 hPa SE 8 km/h 17.7 km/h 42 % 0 mm
19:20 28.4 °C 14.6 °C 1003.9 hPa SE 9.7 km/h 16.1 km/h 43 % 0 mm
19:25 28.3 °C 14.2 °C 1003.9 hPa SSW 3.2 km/h 16.1 km/h 42 % 0 mm
19:30 28.1 °C 14 °C 1003.9 hPa SE 11.3 km/h 14.5 km/h 42 % 0 mm
19:31 28.1 °C 14 °C 1003.9 hPa ESE 9.7 km/h 14.5 km/h 42 % 0 mm
19:36 27.8 °C 14.4 °C 1003.9 hPa SE 4.8 km/h 17.7 km/h 44 % 0 mm
19:41 27.6 °C 14.2 °C 1003.9 hPa SSE 11.3 km/h 17.7 km/h 44 % 0 mm
19:46 27.4 °C 14.1 °C 1003.9 hPa ESE 6.4 km/h 17.7 km/h 44 % 0 mm
19:51 27.2 °C 14.2 °C 1003.9 hPa East 3.2 km/h 14.5 km/h 45 % 0 mm
19:56 26.9 °C 14.3 °C 1003.9 hPa SE 4.8 km/h 14.5 km/h 46 % 0 mm
20:01 26.8 °C 14.5 °C 1004.3 hPa SE 3.2 km/h 11.3 km/h 47 % 0 mm
20:06 26.6 °C 15 °C 1004.3 hPa SE 3.2 km/h 11.3 km/h 49 % 0 mm
20:11 26.4 °C 15.1 °C 1004.3 hPa ESE 6.4 km/h 12.9 km/h 50 % 0 mm
20:16 26.2 °C 15.6 °C 1004.3 hPa ESE 6.4 km/h 12.9 km/h 52 % 0 mm
20:21 26.1 °C 16.4 °C 1004.3 hPa SE 8 km/h 12.9 km/h 55 % 0 mm
20:26 25.9 °C 17.5 °C 1004.3 hPa SE 6.4 km/h 14.5 km/h 60 % 0 mm
20:31 25.7 °C 18.4 °C 1004.3 hPa SSE 17.7 km/h 17.7 km/h 64 % 0 mm
20:36 25.6 °C 18.8 °C 1004.3 hPa SE 9.7 km/h 17.7 km/h 66 % 0 mm
20:41 25.4 °C 19.1 °C 1004.6 hPa SSE 14.5 km/h 20.9 km/h 68 % 0 mm
20:46 25.3 °C 19.2 °C 1004.6 hPa SSW 4.8 km/h 20.9 km/h 69 % 0 mm
20:51 25.1 °C 19.2 °C 1004.6 hPa SSE 11.3 km/h 20.9 km/h 70 % 0 mm
20:56 25 °C 19.4 °C 1004.6 hPa East 9.7 km/h 19.3 km/h 71 % 0 mm
21:01 24.9 °C 19.7 °C 1004.6 hPa SSW 11.3 km/h 22.5 km/h 73 % 0 mm
21:06 24.7 °C 20 °C 1005 hPa South 14.5 km/h 25.7 km/h 75 % 0 mm
21:11 24.5 °C 20.4 °C 1005 hPa SSE 16.1 km/h 25.7 km/h 78 % 0 mm
21:16 24.3 °C 20.4 °C 1005 hPa South 14.5 km/h 27.4 km/h 79 % 0 mm
21:21 24.1 °C 20.6 °C 1005.3 hPa ESE 9.7 km/h 27.4 km/h 81 % 0 mm
21:26 23.9 °C 20.6 °C 1005.6 hPa SSE 9.7 km/h 27.4 km/h 82 % 0 mm
21:31 23.8 °C 20.7 °C 1006 hPa ESE 8 km/h 22.5 km/h 83 % 0 mm
21:36 23.8 °C 20.7 °C 1005.6 hPa SSE 8 km/h 22.5 km/h 83 % 0 mm
21:41 23.7 °C 20.8 °C 1005.6 hPa SSE 8 km/h 19.3 km/h 84 % 0 mm
21:46 23.6 °C 20.7 °C 1005.6 hPa ESE 9.7 km/h 19.3 km/h 84 % 0 mm
21:51 23.6 °C 20.7 °C 1005.6 hPa SE 3.2 km/h 19.3 km/h 84 % 0 mm
21:56 23.4 °C 20.7 °C 1005.6 hPa SSW 3.2 km/h 17.7 km/h 85 % 0 mm
22:01 23.4 °C 20.7 °C 1006 hPa South 6.4 km/h 17.7 km/h 85 % 0 mm
22:06 23.3 °C 20.8 °C 1006 hPa SSE 8 km/h 16.1 km/h 86 % 0 mm
22:11 23.3 °C 20.8 °C 1006 hPa South 1.6 km/h 16.1 km/h 86 % 0 mm
22:16 23.2 °C 20.7 °C 1006 hPa SSW 6.4 km/h 16.1 km/h 86 % 0 mm
22:21 23.2 °C 20.7 °C 1006 hPa SE 4.8 km/h 12.9 km/h 86 % 0 mm
22:26 23.2 °C 20.9 °C 1006 hPa South 4.8 km/h 12.9 km/h 87 % 0 mm
22:31 23.2 °C 20.9 °C 1006 hPa SSE 4.8 km/h 11.3 km/h 87 % 0 mm
22:36 23.1 °C 20.8 °C 1006 hPa SSE 4.8 km/h 11.3 km/h 87 % 0 mm
22:41 23.1 °C 20.8 °C 1006 hPa ESE 6.4 km/h 11.3 km/h 87 % 0 mm
22:46 23.1 °C 20.8 °C 1006 hPa SE 4.8 km/h 11.3 km/h 87 % 0 mm
22:51 23 °C 20.9 °C 1006 hPa SE 1.6 km/h 9.7 km/h 88 % 0 mm
22:56 23 °C 20.9 °C 1006 hPa SSE 4.8 km/h 9.7 km/h 88 % 0 mm
23:02 23 °C 20.9 °C 1006.3 hPa South 6.4 km/h 9.7 km/h 88 % 0 mm
23:07 23 °C 20.9 °C 1006.3 hPa South 4.8 km/h 9.7 km/h 88 % 0 mm
23:12 23 °C 21.1 °C 1006.3 hPa SE 4.8 km/h 9.7 km/h 89 % 0 mm
23:17 23.1 °C 21.2 °C 1006.3 hPa SSW 4.8 km/h 9.7 km/h 89 % 0 mm
23:22 23.1 °C 21.2 °C 1006.3 hPa South 3.2 km/h 8 km/h 89 % 0 mm
23:27 23.1 °C 21.2 °C 1006.3 hPa SSE 4.8 km/h 8 km/h 89 % 0 mm
23:32 23.1 °C 21.2 °C 1006 hPa South 4.8 km/h 8 km/h 89 % 0 mm
23:37 23.1 °C 21.2 °C 1006 hPa SE 3.2 km/h 8 km/h 89 % 0 mm
23:42 23.1 °C 21.2 °C 1006 hPa SE 1.6 km/h 8 km/h 89 % 0 mm
23:47 23.1 °C 21.4 °C 1006 hPa SSW 3.2 km/h 11.3 km/h 90 % 0 mm
23:52 23.1 °C 21.4 °C 1005.6 hPa South 8 km/h 11.3 km/h 90 % 0 mm
23:57 23.2 °C 21.5 °C 1005.6 hPa SSE 3.2 km/h 11.3 km/h 90 % 0 mm
Spring, Texas: Villages of Bridgestone
Compliments of Weather Underground - 2.75 mb

Script developed by  Jim McMurry - jmcmurry@mwt.net Adapted for the template by  Wim van der Kuil - Leuven-Template.eu

You find our weather info also at:

UK Metoffice

WeatherCloud

Weather Underground

Mid-South Weather Network

AWEKAS

Citizen Weather Observer Program (CWOP)

HAMweather, WeatherForYou, PWS Weather

Equipment we use:

Weather-station
Davis Vantage Vue

Weather-program
Meteohub

Weather-server
Debian 7.9 x86 (Guest)

Provider
DreamHost

Davis Vantage Vue

Meteohub

Debian 7.9 x86 (Guest)

DreamHost